sensor_id;sensor_type;location;lat;lon;timestamp;temperature;humidity
6439;DHT22;3252;52.540;13.290;2022-11-15T00:01:00;7.10;99.90
6439;DHT22;3252;52.540;13.290;2022-11-15T00:03:22;7.10;99.90
6439;DHT22;3252;52.540;13.290;2022-11-15T00:05:45;7.10;99.90
6439;DHT22;3252;52.540;13.290;2022-11-15T00:08:06;7.10;99.90
6439;DHT22;3252;52.540;13.290;2022-11-15T00:10:26;7.10;99.90
6439;DHT22;3252;52.540;13.290;2022-11-15T00:12:47;7.10;99.90
6439;DHT22;3252;52.540;13.290;2022-11-15T00:15:08;7.10;99.90
6439;DHT22;3252;52.540;13.290;2022-11-15T00:17:29;7.00;99.90
6439;DHT22;3252;52.540;13.290;2022-11-15T00:19:49;7.10;99.90
6439;DHT22;3252;52.540;13.290;2022-11-15T00:22:11;7.10;99.90
6439;DHT22;3252;52.540;13.290;2022-11-15T00:24:32;7.00;99.90
6439;DHT22;3252;52.540;13.290;2022-11-15T00:26:52;7.00;99.90
6439;DHT22;3252;52.540;13.290;2022-11-15T00:29:13;6.90;99.90
6439;DHT22;3252;52.540;13.290;2022-11-15T00:31:33;6.90;99.90
6439;DHT22;3252;52.540;13.290;2022-11-15T00:33:54;6.80;99.90
6439;DHT22;3252;52.540;13.290;2022-11-15T00:36:14;6.80;99.90
6439;DHT22;3252;52.540;13.290;2022-11-15T00:38:38;6.70;99.90
6439;DHT22;3252;52.540;13.290;2022-11-15T00:40:59;6.70;99.90
6439;DHT22;3252;52.540;13.290;2022-11-15T00:43:20;6.60;99.90
6439;DHT22;3252;52.540;13.290;2022-11-15T00:45:41;6.60;99.90
6439;DHT22;3252;52.540;13.290;2022-11-15T00:48:02;6.50;99.90
6439;DHT22;3252;52.540;13.290;2022-11-15T00:50:23;6.50;99.90
6439;DHT22;3252;52.540;13.290;2022-11-15T00:52:44;6.50;99.90
6439;DHT22;3252;52.540;13.290;2022-11-15T00:55:08;6.40;99.90
6439;DHT22;3252;52.540;13.290;2022-11-15T00:57:29;6.40;99.90
6439;DHT22;3252;52.540;13.290;2022-11-15T00:59:50;6.50;99.90
6439;DHT22;3252;52.540;13.290;2022-11-15T01:02:23;6.40;99.90
6439;DHT22;3252;52.540;13.290;2022-11-15T01:04:44;6.40;99.90
6439;DHT22;3252;52.540;13.290;2022-11-15T01:07:04;6.40;99.90
6439;DHT22;3252;52.540;13.290;2022-11-15T01:09:25;6.40;99.90
6439;DHT22;3252;52.540;13.290;2022-11-15T01:11:47;6.40;99.90
6439;DHT22;3252;52.540;13.290;2022-11-15T01:14:07;6.40;99.90
6439;DHT22;3252;52.540;13.290;2022-11-15T01:16:28;6.40;99.90
6439;DHT22;3252;52.540;13.290;2022-11-15T01:18:49;6.40;99.90
6439;DHT22;3252;52.540;13.290;2022-11-15T01:21:12;6.40;99.90
6439;DHT22;3252;52.540;13.290;2022-11-15T01:23:33;6.40;99.90
6439;DHT22;3252;52.540;13.290;2022-11-15T01:25:58;6.50;99.90
6439;DHT22;3252;52.540;13.290;2022-11-15T01:28:20;6.50;99.90
6439;DHT22;3252;52.540;13.290;2022-11-15T01:30:42;6.50;99.90
6439;DHT22;3252;52.540;13.290;2022-11-15T01:33:02;6.50;99.90
6439;DHT22;3252;52.540;13.290;2022-11-15T01:35:23;6.60;99.90
6439;DHT22;3252;52.540;13.290;2022-11-15T01:37:44;6.60;99.90
6439;DHT22;3252;52.540;13.290;2022-11-15T01:40:05;6.60;99.90
6439;DHT22;3252;52.540;13.290;2022-11-15T01:42:26;6.50;99.90
6439;DHT22;3252;52.540;13.290;2022-11-15T01:44:50;6.50;99.90
6439;DHT22;3252;52.540;13.290;2022-11-15T01:47:13;6.60;99.90
6439;DHT22;3252;52.540;13.290;2022-11-15T01:49:38;6.60;99.90
6439;DHT22;3252;52.540;13.290;2022-11-15T01:52:03;6.60;99.90
6439;DHT22;3252;52.540;13.290;2022-11-15T01:54:24;6.60;99.90
6439;DHT22;3252;52.540;13.290;2022-11-15T01:56:49;6.70;99.90
6439;DHT22;3252;52.540;13.290;2022-11-15T01:59:11;6.60;99.90
6439;DHT22;3252;52.540;13.290;2022-11-15T02:01:34;6.60;99.90
6439;DHT22;3252;52.540;13.290;2022-11-15T02:03:59;6.60;99.90
6439;DHT22;3252;52.540;13.290;2022-11-15T02:06:20;6.60;99.90
6439;DHT22;3252;52.540;13.290;2022-11-15T02:08:43;6.60;99.90
6439;DHT22;3252;52.540;13.290;2022-11-15T02:11:07;6.50;99.90
6439;DHT22;3252;52.540;13.290;2022-11-15T02:13:27;6.50;99.90
6439;DHT22;3252;52.540;13.290;2022-11-15T02:15:55;6.50;99.90
6439;DHT22;3252;52.540;13.290;2022-11-15T02:18:23;6.50;99.90
6439;DHT22;3252;52.540;13.290;2022-11-15T02:20:55;6.50;99.90
6439;DHT22;3252;52.540;13.290;2022-11-15T02:29:16;6.40;99.90
6439;DHT22;3252;52.540;13.290;2022-11-15T02:31:48;6.40;99.90
6439;DHT22;3252;52.540;13.290;2022-11-15T02:34:19;6.40;99.90
6439;DHT22;3252;52.540;13.290;2022-11-15T02:36:49;6.40;99.90
6439;DHT22;3252;52.540;13.290;2022-11-15T02:39:15;6.40;99.90
6439;DHT22;3252;52.540;13.290;2022-11-15T02:41:45;6.30;99.90
6439;DHT22;3252;52.540;13.290;2022-11-15T02:44:10;6.30;99.90
6439;DHT22;3252;52.540;13.290;2022-11-15T02:46:36;6.30;99.90
6439;DHT22;3252;52.540;13.290;2022-11-15T02:49:17;6.30;99.90
6439;DHT22;3252;52.540;13.290;2022-11-15T02:51:39;6.40;99.90
6439;DHT22;3252;52.540;13.290;2022-11-15T02:54:01;6.40;99.90
6439;DHT22;3252;52.540;13.290;2022-11-15T02:56:22;6.30;99.90
6439;DHT22;3252;52.540;13.290;2022-11-15T02:59:00;6.40;99.90
6439;DHT22;3252;52.540;13.290;2022-11-15T03:01:38;6.40;99.90
6439;DHT22;3252;52.540;13.290;2022-11-15T03:04:13;6.40;99.90
6439;DHT22;3252;52.540;13.290;2022-11-15T03:06:43;6.40;99.90
6439;DHT22;3252;52.540;13.290;2022-11-15T03:09:09;6.50;99.90
6439;DHT22;3252;52.540;13.290;2022-11-15T03:11:38;6.50;99.90
6439;DHT22;3252;52.540;13.290;2022-11-15T03:14:05;6.50;99.90
6439;DHT22;3252;52.540;13.290;2022-11-15T03:16:32;6.50;99.90
6439;DHT22;3252;52.540;13.290;2022-11-15T03:18:58;6.60;99.90
6439;DHT22;3252;52.540;13.290;2022-11-15T03:21:21;6.60;99.90
6439;DHT22;3252;52.540;13.290;2022-11-15T03:23:45;6.60;99.90
6439;DHT22;3252;52.540;13.290;2022-11-15T03:26:11;6.60;99.90
6439;DHT22;3252;52.540;13.290;2022-11-15T03:28:35;6.60;99.90
6439;DHT22;3252;52.540;13.290;2022-11-15T03:30:58;6.70;99.90
6439;DHT22;3252;52.540;13.290;2022-11-15T03:33:20;6.70;99.90
6439;DHT22;3252;52.540;13.290;2022-11-15T03:35:44;6.70;99.90
6439;DHT22;3252;52.540;13.290;2022-11-15T03:38:10;6.80;99.90
6439;DHT22;3252;52.540;13.290;2022-11-15T03:40:38;6.80;99.90
6439;DHT22;3252;52.540;13.290;2022-11-15T03:43:02;6.80;99.90
6439;DHT22;3252;52.540;13.290;2022-11-15T03:45:29;6.80;99.90
6439;DHT22;3252;52.540;13.290;2022-11-15T03:47:59;6.80;99.90
6439;DHT22;3252;52.540;13.290;2022-11-15T03:50:22;6.80;99.90
6439;DHT22;3252;52.540;13.290;2022-11-15T03:52:46;6.80;99.90
6439;DHT22;3252;52.540;13.290;2022-11-15T03:55:09;6.80;99.90
6439;DHT22;3252;52.540;13.290;2022-11-15T03:57:32;6.80;99.90
6439;DHT22;3252;52.540;13.290;2022-11-15T03:59:53;6.80;99.90
6439;DHT22;3252;52.540;13.290;2022-11-15T04:02:14;6.80;99.90
6439;DHT22;3252;52.540;13.290;2022-11-15T04:04:35;6.80;99.90
6439;DHT22;3252;52.540;13.290;2022-11-15T04:06:55;6.80;99.90
6439;DHT22;3252;52.540;13.290;2022-11-15T04:09:16;6.90;99.90
6439;DHT22;3252;52.540;13.290;2022-11-15T04:11:36;6.80;99.90
6439;DHT22;3252;52.540;13.290;2022-11-15T04:13:58;6.80;99.90
6439;DHT22;3252;52.540;13.290;2022-11-15T04:16:18;6.80;99.90
6439;DHT22;3252;52.540;13.290;2022-11-15T04:18:39;6.80;99.90
6439;DHT22;3252;52.540;13.290;2022-11-15T04:20:59;6.80;99.90
6439;DHT22;3252;52.540;13.290;2022-11-15T04:23:38;6.80;99.90
6439;DHT22;3252;52.540;13.290;2022-11-15T04:26:22;6.80;99.90
6439;DHT22;3252;52.540;13.290;2022-11-15T04:28:43;6.80;99.90
6439;DHT22;3252;52.540;13.290;2022-11-15T04:31:19;6.80;99.90
6439;DHT22;3252;52.540;13.290;2022-11-15T04:33:40;6.80;99.90
6439;DHT22;3252;52.540;13.290;2022-11-15T04:36:01;6.80;99.90
6439;DHT22;3252;52.540;13.290;2022-11-15T04:38:45;6.80;99.90
6439;DHT22;3252;52.540;13.290;2022-11-15T04:41:06;6.80;99.90
6439;DHT22;3252;52.540;13.290;2022-11-15T04:43:26;6.70;99.90
6439;DHT22;3252;52.540;13.290;2022-11-15T04:45:47;6.80;99.90
6439;DHT22;3252;52.540;13.290;2022-11-15T04:48:09;6.80;99.90
6439;DHT22;3252;52.540;13.290;2022-11-15T04:50:30;6.80;99.90
6439;DHT22;3252;52.540;13.290;2022-11-15T04:52:52;6.80;99.90
6439;DHT22;3252;52.540;13.290;2022-11-15T04:55:13;6.80;99.90
6439;DHT22;3252;52.540;13.290;2022-11-15T04:57:34;6.80;99.90
6439;DHT22;3252;52.540;13.290;2022-11-15T04:59:56;6.70;99.90
6439;DHT22;3252;52.540;13.290;2022-11-15T05:02:17;6.70;99.90
6439;DHT22;3252;52.540;13.290;2022-11-15T05:04:39;6.70;99.90
6439;DHT22;3252;52.540;13.290;2022-11-15T05:06:58;6.70;99.90
6439;DHT22;3252;52.540;13.290;2022-11-15T05:09:20;6.60;99.90
6439;DHT22;3252;52.540;13.290;2022-11-15T05:11:41;6.60;99.90
6439;DHT22;3252;52.540;13.290;2022-11-15T05:14:02;6.60;99.90
6439;DHT22;3252;52.540;13.290;2022-11-15T05:16:22;6.50;99.90
6439;DHT22;3252;52.540;13.290;2022-11-15T05:18:43;6.50;99.90
6439;DHT22;3252;52.540;13.290;2022-11-15T05:21:08;6.50;99.90
6439;DHT22;3252;52.540;13.290;2022-11-15T05:23:29;6.40;99.90
6439;DHT22;3252;52.540;13.290;2022-11-15T05:25:49;6.40;99.90
6439;DHT22;3252;52.540;13.290;2022-11-15T05:28:10;6.40;99.90
6439;DHT22;3252;52.540;13.290;2022-11-15T05:30:30;6.40;99.90
6439;DHT22;3252;52.540;13.290;2022-11-15T05:32:51;6.30;99.90
6439;DHT22;3252;52.540;13.290;2022-11-15T05:35:15;6.30;99.90
6439;DHT22;3252;52.540;13.290;2022-11-15T05:37:40;6.20;99.90
6439;DHT22;3252;52.540;13.290;2022-11-15T05:40:01;6.20;99.90
6439;DHT22;3252;52.540;13.290;2022-11-15T05:42:22;6.20;99.90
6439;DHT22;3252;52.540;13.290;2022-11-15T05:44:46;6.10;99.90
6439;DHT22;3252;52.540;13.290;2022-11-15T05:47:10;6.10;99.90
6439;DHT22;3252;52.540;13.290;2022-11-15T05:49:34;6.10;99.90
6439;DHT22;3252;52.540;13.290;2022-11-15T05:51:55;6.10;99.90
6439;DHT22;3252;52.540;13.290;2022-11-15T05:54:20;6.10;99.90
6439;DHT22;3252;52.540;13.290;2022-11-15T05:56:41;6.00;99.90
6439;DHT22;3252;52.540;13.290;2022-11-15T05:59:03;5.90;99.90
6439;DHT22;3252;52.540;13.290;2022-11-15T06:01:25;5.90;99.90
6439;DHT22;3252;52.540;13.290;2022-11-15T06:03:46;5.90;99.90
6439;DHT22;3252;52.540;13.290;2022-11-15T06:06:07;5.90;99.90
6439;DHT22;3252;52.540;13.290;2022-11-15T06:08:28;5.90;99.90
6439;DHT22;3252;52.540;13.290;2022-11-15T06:10:50;5.90;99.90
6439;DHT22;3252;52.540;13.290;2022-11-15T06:13:11;5.90;99.90
6439;DHT22;3252;52.540;13.290;2022-11-15T06:15:32;5.90;99.90
6439;DHT22;3252;52.540;13.290;2022-11-15T06:17:56;5.90;99.90
6439;DHT22;3252;52.540;13.290;2022-11-15T06:20:18;5.90;99.90
6439;DHT22;3252;52.540;13.290;2022-11-15T06:22:39;5.90;99.90
6439;DHT22;3252;52.540;13.290;2022-11-15T06:24:59;5.90;99.90
6439;DHT22;3252;52.540;13.290;2022-11-15T06:27:21;5.90;99.90
6439;DHT22;3252;52.540;13.290;2022-11-15T06:29:42;5.90;99.90
6439;DHT22;3252;52.540;13.290;2022-11-15T06:32:03;5.90;99.90
6439;DHT22;3252;52.540;13.290;2022-11-15T06:34:24;5.90;99.90
6439;DHT22;3252;52.540;13.290;2022-11-15T06:36:45;5.90;99.90
6439;DHT22;3252;52.540;13.290;2022-11-15T06:39:05;5.90;99.90
6439;DHT22;3252;52.540;13.290;2022-11-15T06:41:26;5.90;99.90
6439;DHT22;3252;52.540;13.290;2022-11-15T06:43:48;6.00;99.90
6439;DHT22;3252;52.540;13.290;2022-11-15T06:46:09;5.90;99.90
6439;DHT22;3252;52.540;13.290;2022-11-15T06:48:30;6.00;99.90
6439;DHT22;3252;52.540;13.290;2022-11-15T06:50:51;6.00;99.90
6439;DHT22;3252;52.540;13.290;2022-11-15T06:53:12;6.00;99.90
6439;DHT22;3252;52.540;13.290;2022-11-15T06:55:33;6.00;99.90
6439;DHT22;3252;52.540;13.290;2022-11-15T06:57:53;6.00;99.90
6439;DHT22;3252;52.540;13.290;2022-11-15T07:00:17;6.00;99.90
6439;DHT22;3252;52.540;13.290;2022-11-15T07:02:38;6.00;99.90
6439;DHT22;3252;52.540;13.290;2022-11-15T07:04:58;6.00;99.90
6439;DHT22;3252;52.540;13.290;2022-11-15T07:07:19;6.10;99.90
6439;DHT22;3252;52.540;13.290;2022-11-15T07:09:40;6.10;99.90
6439;DHT22;3252;52.540;13.290;2022-11-15T07:12:00;6.10;99.90
6439;DHT22;3252;52.540;13.290;2022-11-15T07:14:21;6.10;99.90
6439;DHT22;3252;52.540;13.290;2022-11-15T07:16:43;6.20;99.90
6439;DHT22;3252;52.540;13.290;2022-11-15T07:19:04;6.20;99.90
6439;DHT22;3252;52.540;13.290;2022-11-15T07:21:24;6.30;99.90
6439;DHT22;3252;52.540;13.290;2022-11-15T07:23:45;6.30;99.90
6439;DHT22;3252;52.540;13.290;2022-11-15T07:26:06;6.40;99.90
6439;DHT22;3252;52.540;13.290;2022-11-15T07:28:27;6.40;99.90
6439;DHT22;3252;52.540;13.290;2022-11-15T07:30:48;6.50;99.90
6439;DHT22;3252;52.540;13.290;2022-11-15T07:33:09;6.60;99.90
6439;DHT22;3252;52.540;13.290;2022-11-15T07:35:30;6.60;99.90
6439;DHT22;3252;52.540;13.290;2022-11-15T07:37:55;6.70;99.90
6439;DHT22;3252;52.540;13.290;2022-11-15T07:40:17;6.80;99.90
6439;DHT22;3252;52.540;13.290;2022-11-15T07:42:38;7.00;99.90
6439;DHT22;3252;52.540;13.290;2022-11-15T07:45:15;7.10;99.90
6439;DHT22;3252;52.540;13.290;2022-11-15T07:47:36;7.20;99.90
6439;DHT22;3252;52.540;13.290;2022-11-15T07:49:58;7.40;99.90
6439;DHT22;3252;52.540;13.290;2022-11-15T07:52:19;7.50;99.90
6439;DHT22;3252;52.540;13.290;2022-11-15T07:54:40;7.60;99.90
6439;DHT22;3252;52.540;13.290;2022-11-15T07:57:00;7.80;99.90
6439;DHT22;3252;52.540;13.290;2022-11-15T07:59:21;7.90;99.90
6439;DHT22;3252;52.540;13.290;2022-11-15T08:01:42;8.10;99.90
6439;DHT22;3252;52.540;13.290;2022-11-15T08:04:03;8.10;99.90
6439;DHT22;3252;52.540;13.290;2022-11-15T08:06:25;8.20;99.90
6439;DHT22;3252;52.540;13.290;2022-11-15T08:08:46;8.40;99.90
6439;DHT22;3252;52.540;13.290;2022-11-15T08:11:07;8.60;99.90
6439;DHT22;3252;52.540;13.290;2022-11-15T08:13:28;8.80;99.90
6439;DHT22;3252;52.540;13.290;2022-11-15T08:15:48;9.00;99.90
6439;DHT22;3252;52.540;13.290;2022-11-15T08:18:10;9.30;99.90
6439;DHT22;3252;52.540;13.290;2022-11-15T08:20:32;9.50;99.90
6439;DHT22;3252;52.540;13.290;2022-11-15T08:22:54;9.60;99.90
6439;DHT22;3252;52.540;13.290;2022-11-15T08:25:15;9.70;99.90
6439;DHT22;3252;52.540;13.290;2022-11-15T08:27:36;10.00;99.90
6439;DHT22;3252;52.540;13.290;2022-11-15T08:29:57;10.20;99.90
6439;DHT22;3252;52.540;13.290;2022-11-15T08:32:18;10.10;99.90
6439;DHT22;3252;52.540;13.290;2022-11-15T08:34:38;10.20;99.90
6439;DHT22;3252;52.540;13.290;2022-11-15T08:36:59;10.20;99.90
6439;DHT22;3252;52.540;13.290;2022-11-15T08:39:21;10.30;99.90
6439;DHT22;3252;52.540;13.290;2022-11-15T08:41:42;10.40;99.90
6439;DHT22;3252;52.540;13.290;2022-11-15T08:44:04;10.50;99.90
6439;DHT22;3252;52.540;13.290;2022-11-15T08:46:24;10.70;99.90
6439;DHT22;3252;52.540;13.290;2022-11-15T08:48:45;10.90;99.90
6439;DHT22;3252;52.540;13.290;2022-11-15T08:51:06;10.90;99.90
6439;DHT22;3252;52.540;13.290;2022-11-15T08:53:27;10.70;99.90
6439;DHT22;3252;52.540;13.290;2022-11-15T08:55:49;10.60;99.90
6439;DHT22;3252;52.540;13.290;2022-11-15T08:58:10;10.60;99.90
6439;DHT22;3252;52.540;13.290;2022-11-15T09:00:31;10.60;99.90
6439;DHT22;3252;52.540;13.290;2022-11-15T09:02:51;10.50;99.90
6439;DHT22;3252;52.540;13.290;2022-11-15T09:05:11;10.40;99.90
6439;DHT22;3252;52.540;13.290;2022-11-15T09:07:32;10.30;99.90
6439;DHT22;3252;52.540;13.290;2022-11-15T09:09:53;10.20;99.90
6439;DHT22;3252;52.540;13.290;2022-11-15T09:12:14;10.20;99.90
6439;DHT22;3252;52.540;13.290;2022-11-15T09:14:35;10.20;99.90
6439;DHT22;3252;52.540;13.290;2022-11-15T09:16:57;10.20;99.90
6439;DHT22;3252;52.540;13.290;2022-11-15T09:19:17;10.20;99.90
6439;DHT22;3252;52.540;13.290;2022-11-15T09:21:38;10.10;99.90
6439;DHT22;3252;52.540;13.290;2022-11-15T09:23:59;10.10;99.90
6439;DHT22;3252;52.540;13.290;2022-11-15T09:26:19;10.20;99.90
6439;DHT22;3252;52.540;13.290;2022-11-15T09:28:42;10.10;99.90
6439;DHT22;3252;52.540;13.290;2022-11-15T09:31:05;10.10;99.90
6439;DHT22;3252;52.540;13.290;2022-11-15T09:33:27;10.10;99.90
6439;DHT22;3252;52.540;13.290;2022-11-15T09:35:47;10.10;99.90
6439;DHT22;3252;52.540;13.290;2022-11-15T09:38:08;10.10;99.90
6439;DHT22;3252;52.540;13.290;2022-11-15T09:40:30;10.10;99.90
6439;DHT22;3252;52.540;13.290;2022-11-15T09:43:02;10.20;99.90
6439;DHT22;3252;52.540;13.290;2022-11-15T09:45:31;10.20;99.90
6439;DHT22;3252;52.540;13.290;2022-11-15T09:48:34;10.20;99.90
6439;DHT22;3252;52.540;13.290;2022-11-15T09:50:55;10.30;99.90
6439;DHT22;3252;52.540;13.290;2022-11-15T09:53:00;10.30;99.90
6439;DHT22;3252;52.540;13.290;2022-11-15T09:55:05;10.30;99.90
6439;DHT22;3252;52.540;13.290;2022-11-15T09:57:12;10.40;99.90
6439;DHT22;3252;52.540;13.290;2022-11-15T09:59:25;10.40;99.90
6439;DHT22;3252;52.540;13.290;2022-11-15T10:01:38;10.50;99.90
6439;DHT22;3252;52.540;13.290;2022-11-15T10:03:42;10.50;99.90
6439;DHT22;3252;52.540;13.290;2022-11-15T10:05:47;10.50;99.90
6439;DHT22;3252;52.540;13.290;2022-11-15T10:07:56;10.60;99.90
6439;DHT22;3252;52.540;13.290;2022-11-15T10:10:04;10.60;99.90
6439;DHT22;3252;52.540;13.290;2022-11-15T10:12:11;10.60;99.90
6439;DHT22;3252;52.540;13.290;2022-11-15T10:14:17;10.70;99.90
6439;DHT22;3252;52.540;13.290;2022-11-15T10:16:47;10.70;99.90
6439;DHT22;3252;52.540;13.290;2022-11-15T10:18:56;10.80;99.90
6439;DHT22;3252;52.540;13.290;2022-11-15T10:21:09;10.80;99.90
6439;DHT22;3252;52.540;13.290;2022-11-15T10:23:17;10.90;99.90
6439;DHT22;3252;52.540;13.290;2022-11-15T10:25:22;10.90;99.90
6439;DHT22;3252;52.540;13.290;2022-11-15T10:27:25;11.00;99.90
6439;DHT22;3252;52.540;13.290;2022-11-15T10:29:27;11.00;99.90
6439;DHT22;3252;52.540;13.290;2022-11-15T10:31:29;11.10;99.90
6439;DHT22;3252;52.540;13.290;2022-11-15T10:33:34;11.10;99.90
6439;DHT22;3252;52.540;13.290;2022-11-15T10:35:37;11.10;99.90
6439;DHT22;3252;52.540;13.290;2022-11-15T10:37:39;11.20;99.90
6439;DHT22;3252;52.540;13.290;2022-11-15T10:39:41;11.30;99.90
6439;DHT22;3252;52.540;13.290;2022-11-15T10:41:44;11.30;99.90
6439;DHT22;3252;52.540;13.290;2022-11-15T10:44:12;11.30;99.90
6439;DHT22;3252;52.540;13.290;2022-11-15T10:46:20;11.40;99.90
6439;DHT22;3252;52.540;13.290;2022-11-15T10:48:24;11.50;99.90
6439;DHT22;3252;52.540;13.290;2022-11-15T10:50:30;11.50;99.90
6439;DHT22;3252;52.540;13.290;2022-11-15T10:52:34;11.50;99.90
6439;DHT22;3252;52.540;13.290;2022-11-15T10:54:40;11.60;99.90
6439;DHT22;3252;52.540;13.290;2022-11-15T10:56:49;11.60;99.90
6439;DHT22;3252;52.540;13.290;2022-11-15T10:58:53;11.70;99.90
6439;DHT22;3252;52.540;13.290;2022-11-15T11:00:56;11.70;99.90
6439;DHT22;3252;52.540;13.290;2022-11-15T11:03:28;11.70;99.90
6439;DHT22;3252;52.540;13.290;2022-11-15T11:05:34;11.80;99.90
6439;DHT22;3252;52.540;13.290;2022-11-15T11:07:37;11.80;99.90
6439;DHT22;3252;52.540;13.290;2022-11-15T11:09:41;11.90;99.90
6439;DHT22;3252;52.540;13.290;2022-11-15T11:11:46;11.90;99.90
6439;DHT22;3252;52.540;13.290;2022-11-15T11:13:49;12.00;99.90
6439;DHT22;3252;52.540;13.290;2022-11-15T11:15:55;12.00;99.90
6439;DHT22;3252;52.540;13.290;2022-11-15T11:18:04;12.00;99.90
6439;DHT22;3252;52.540;13.290;2022-11-15T11:20:17;12.00;99.90
6439;DHT22;3252;52.540;13.290;2022-11-15T11:22:29;12.10;99.90
6439;DHT22;3252;52.540;13.290;2022-11-15T11:24:37;12.10;99.90
6439;DHT22;3252;52.540;13.290;2022-11-15T11:26:45;12.20;99.90
6439;DHT22;3252;52.540;13.290;2022-11-15T11:28:54;12.20;99.90
6439;DHT22;3252;52.540;13.290;2022-11-15T11:31:12;12.20;99.90
6439;DHT22;3252;52.540;13.290;2022-11-15T11:33:18;12.30;99.90
6439;DHT22;3252;52.540;13.290;2022-11-15T11:35:26;12.30;99.90
6439;DHT22;3252;52.540;13.290;2022-11-15T11:37:37;12.30;99.90
6439;DHT22;3252;52.540;13.290;2022-11-15T11:39:47;12.30;99.90
6439;DHT22;3252;52.540;13.290;2022-11-15T11:42:06;12.40;99.90
6439;DHT22;3252;52.540;13.290;2022-11-15T11:44:21;12.40;99.90
6439;DHT22;3252;52.540;13.290;2022-11-15T11:46:36;12.50;99.90
6439;DHT22;3252;52.540;13.290;2022-11-15T11:48:44;12.50;99.90
6439;DHT22;3252;52.540;13.290;2022-11-15T11:50:47;12.60;99.90
6439;DHT22;3252;52.540;13.290;2022-11-15T11:52:57;12.60;99.90
6439;DHT22;3252;52.540;13.290;2022-11-15T11:55:05;12.60;99.90
6439;DHT22;3252;52.540;13.290;2022-11-15T11:57:20;12.60;99.90
6439;DHT22;3252;52.540;13.290;2022-11-15T11:59:32;12.70;99.90
6439;DHT22;3252;52.540;13.290;2022-11-15T12:01:39;12.70;99.90
6439;DHT22;3252;52.540;13.290;2022-11-15T12:03:46;12.70;99.90
6439;DHT22;3252;52.540;13.290;2022-11-15T12:05:51;12.70;99.90
6439;DHT22;3252;52.540;13.290;2022-11-15T12:08:02;12.80;99.90
6439;DHT22;3252;52.540;13.290;2022-11-15T12:10:14;12.80;99.90
6439;DHT22;3252;52.540;13.290;2022-11-15T12:12:24;12.80;99.90
6439;DHT22;3252;52.540;13.290;2022-11-15T12:14:33;12.80;99.90
6439;DHT22;3252;52.540;13.290;2022-11-15T12:16:37;12.90;99.90
6439;DHT22;3252;52.540;13.290;2022-11-15T12:18:43;12.90;99.90
6439;DHT22;3252;52.540;13.290;2022-11-15T12:20:52;12.90;99.90
6439;DHT22;3252;52.540;13.290;2022-11-15T12:23:01;12.90;99.90
6439;DHT22;3252;52.540;13.290;2022-11-15T12:25:14;12.90;99.90
6439;DHT22;3252;52.540;13.290;2022-11-15T12:27:19;12.90;99.90
6439;DHT22;3252;52.540;13.290;2022-11-15T12:29:29;12.90;99.90
6439;DHT22;3252;52.540;13.290;2022-11-15T12:31:37;13.00;99.90
6439;DHT22;3252;52.540;13.290;2022-11-15T12:33:42;13.10;99.90
6439;DHT22;3252;52.540;13.290;2022-11-15T12:35:58;13.10;99.90
6439;DHT22;3252;52.540;13.290;2022-11-15T12:38:01;13.10;99.90
6439;DHT22;3252;52.540;13.290;2022-11-15T12:40:18;13.20;99.90
6439;DHT22;3252;52.540;13.290;2022-11-15T12:42:38;13.20;99.90
6439;DHT22;3252;52.540;13.290;2022-11-15T12:44:57;13.20;99.90
6439;DHT22;3252;52.540;13.290;2022-11-15T12:47:21;13.20;99.90
6439;DHT22;3252;52.540;13.290;2022-11-15T12:49:43;13.20;99.90
6439;DHT22;3252;52.540;13.290;2022-11-15T12:52:04;13.30;99.90
6439;DHT22;3252;52.540;13.290;2022-11-15T12:56:44;13.30;99.90
6439;DHT22;3252;52.540;13.290;2022-11-15T12:58:48;13.30;99.90
6439;DHT22;3252;52.540;13.290;2022-11-15T13:00:50;13.30;99.90
6439;DHT22;3252;52.540;13.290;2022-11-15T13:03:20;13.30;99.90
6439;DHT22;3252;52.540;13.290;2022-11-15T13:07:59;13.40;99.90
6439;DHT22;3252;52.540;13.290;2022-11-15T13:10:30;13.50;99.90
6439;DHT22;3252;52.540;13.290;2022-11-15T13:12:54;13.50;99.90
6439;DHT22;3252;52.540;13.290;2022-11-15T13:14:57;13.50;99.90
6439;DHT22;3252;52.540;13.290;2022-11-15T13:17:00;13.50;99.90
6439;DHT22;3252;52.540;13.290;2022-11-15T13:19:04;13.50;99.90
6439;DHT22;3252;52.540;13.290;2022-11-15T13:21:21;13.50;99.90
6439;DHT22;3252;52.540;13.290;2022-11-15T13:23:41;13.50;99.90
6439;DHT22;3252;52.540;13.290;2022-11-15T13:28:21;13.50;99.90
6439;DHT22;3252;52.540;13.290;2022-11-15T13:30:28;13.50;99.90
6439;DHT22;3252;52.540;13.290;2022-11-15T13:32:31;13.60;99.90
6439;DHT22;3252;52.540;13.290;2022-11-15T13:34:34;13.50;99.90
6439;DHT22;3252;52.540;13.290;2022-11-15T13:36:37;13.50;99.90
6439;DHT22;3252;52.540;13.290;2022-11-15T13:38:41;13.50;99.90
6439;DHT22;3252;52.540;13.290;2022-11-15T13:40:43;13.40;99.90
6439;DHT22;3252;52.540;13.290;2022-11-15T13:42:48;13.50;99.90
6439;DHT22;3252;52.540;13.290;2022-11-15T13:44:58;13.50;99.90
6439;DHT22;3252;52.540;13.290;2022-11-15T13:47:03;13.50;99.90
6439;DHT22;3252;52.540;13.290;2022-11-15T13:49:09;13.50;99.90
6439;DHT22;3252;52.540;13.290;2022-11-15T13:51:17;13.50;99.90
6439;DHT22;3252;52.540;13.290;2022-11-15T13:53:21;13.50;99.90
6439;DHT22;3252;52.540;13.290;2022-11-15T13:55:24;13.50;99.90
6439;DHT22;3252;52.540;13.290;2022-11-15T13:57:29;13.40;99.90
6439;DHT22;3252;52.540;13.290;2022-11-15T13:59:44;13.40;99.90
6439;DHT22;3252;52.540;13.290;2022-11-15T14:01:47;13.40;99.90
6439;DHT22;3252;52.540;13.290;2022-11-15T14:03:53;13.30;99.90
6439;DHT22;3252;52.540;13.290;2022-11-15T14:06:03;13.30;99.90
6439;DHT22;3252;52.540;13.290;2022-11-15T14:08:22;13.30;99.90
6439;DHT22;3252;52.540;13.290;2022-11-15T14:10:28;13.20;99.90
6439;DHT22;3252;52.540;13.290;2022-11-15T14:12:31;13.20;99.90
6439;DHT22;3252;52.540;13.290;2022-11-15T14:14:44;13.20;99.90
6439;DHT22;3252;52.540;13.290;2022-11-15T14:16:48;13.10;99.90
6439;DHT22;3252;52.540;13.290;2022-11-15T14:18:52;13.10;99.90
6439;DHT22;3252;52.540;13.290;2022-11-15T14:21:06;13.10;99.90
6439;DHT22;3252;52.540;13.290;2022-11-15T14:23:23;13.10;99.90
6439;DHT22;3252;52.540;13.290;2022-11-15T14:25:27;13.10;99.90
6439;DHT22;3252;52.540;13.290;2022-11-15T14:27:29;13.10;99.90
6439;DHT22;3252;52.540;13.290;2022-11-15T14:29:31;13.00;99.90
6439;DHT22;3252;52.540;13.290;2022-11-15T14:31:35;13.00;99.90
6439;DHT22;3252;52.540;13.290;2022-11-15T14:33:38;13.00;99.90
6439;DHT22;3252;52.540;13.290;2022-11-15T14:35:40;12.90;99.90
6439;DHT22;3252;52.540;13.290;2022-11-15T14:37:43;12.90;99.90
6439;DHT22;3252;52.540;13.290;2022-11-15T14:39:45;12.90;99.90
6439;DHT22;3252;52.540;13.290;2022-11-15T14:41:47;12.80;99.90
6439;DHT22;3252;52.540;13.290;2022-11-15T14:43:50;12.80;99.90
6439;DHT22;3252;52.540;13.290;2022-11-15T14:45:53;12.80;99.90
6439;DHT22;3252;52.540;13.290;2022-11-15T14:47:56;12.70;99.90
6439;DHT22;3252;52.540;13.290;2022-11-15T14:49:58;12.70;99.90
6439;DHT22;3252;52.540;13.290;2022-11-15T14:52:00;12.60;99.90
6439;DHT22;3252;52.540;13.290;2022-11-15T14:54:02;12.50;99.90
6439;DHT22;3252;52.540;13.290;2022-11-15T14:56:04;12.50;99.90
6439;DHT22;3252;52.540;13.290;2022-11-15T14:58:07;12.40;99.90
6439;DHT22;3252;52.540;13.290;2022-11-15T15:00:10;12.40;99.90
6439;DHT22;3252;52.540;13.290;2022-11-15T15:02:17;12.30;99.90
6439;DHT22;3252;52.540;13.290;2022-11-15T15:04:21;12.20;99.90